Time;durP1;ratioP1;P1;durP2;ratioP2;P2;SDS_P1;SDS_P2;PMS_P1;PMS_P2;Temp;Humidity;BMP_temperature;BMP_pressure;BME280_temperature;BME280_humidity;BME280_pressure;Samples;Min_cycle;Max_cycle;Signal;HPM_P1;HPM_P2
2023/06/15 00:01:19;;;;;;;5.72;2.90;;;;;;;17.27;49.66;102043.78;7394268;19;20079;-66
2023/06/15 00:03:46;;;;;;;6.40;2.60;;;;;;;17.57;48.89;102036.91;7389705;19;20019;-56
2023/06/15 00:06:14;;;;;;;5.70;2.80;;;;;;;17.76;48.42;102042.47;7393346;19;20500;-56
2023/06/15 00:08:41;;;;;;;6.20;3.00;;;;;;;17.68;48.64;102044.91;7392376;19;20396;-56
2023/06/15 00:11:08;;;;;;;8.10;3.40;;;;;;;17.39;49.06;102041.94;7393487;19;20039;-56
2023/06/15 00:13:35;;;;;;;8.18;3.17;;;;;;;17.08;49.98;102045.41;7390212;19;20025;-57
2023/06/15 00:16:03;;;;;;;5.45;2.80;;;;;;;17.22;50.08;102048.69;7391854;19;20024;-57
2023/06/15 00:18:32;;;;;;;9.40;3.20;;;;;;;17.52;49.10;102044.47;7393984;19;20018;-56
2023/06/15 00:21:00;;;;;;;9.93;2.90;;;;;;;17.57;48.66;102046.75;7393301;19;20532;-56
2023/06/15 00:23:29;;;;;;;6.78;2.60;;;;;;;17.55;49.00;102044.19;7390077;19;20015;-56
2023/06/15 00:25:56;;;;;;;6.25;2.80;;;;;;;17.50;48.87;102041.91;7392006;19;20059;-54
2023/06/15 00:28:24;;;;;;;8.82;2.70;;;;;;;17.51;48.66;102043.63;7391288;19;20024;-56
2023/06/15 00:30:51;;;;;;;4.45;2.42;;;;;;;17.57;48.71;102044.94;7391386;19;20028;-56
2023/06/15 00:33:18;;;;;;;10.30;3.28;;;;;;;17.47;48.84;102038.63;7391327;19;20022;-56
2023/06/15 00:35:46;;;;;;;7.10;3.15;;;;;;;17.27;49.58;102045.63;7393481;19;20060;-56
2023/06/15 00:38:13;;;;;;;7.38;2.72;;;;;;;17.05;50.08;102049.16;7393238;19;20018;-55
2023/06/15 00:40:40;;;;;;;7.68;2.70;;;;;;;16.86;50.69;102041.75;7391360;19;20011;-57
2023/06/15 00:43:07;;;;;;;7.30;2.80;;;;;;;17.14;50.07;102044.94;7391345;19;20493;-51
2023/06/15 00:45:35;;;;;;;6.10;2.80;;;;;;;17.28;49.29;102047.31;7392324;19;20458;-53
2023/06/15 00:48:03;;;;;;;6.28;2.92;;;;;;;17.04;49.95;102045.66;7391075;19;20026;-49
2023/06/15 00:50:31;;;;;;;5.35;2.40;;;;;;;16.78;50.26;102050.41;7390839;19;20018;-52
2023/06/15 00:53:00;;;;;;;5.70;3.10;;;;;;;16.64;50.99;102047.97;7390998;19;20023;-53
2023/06/15 00:55:28;;;;;;;5.97;2.88;;;;;;;16.54;51.09;102049.63;7390769;19;20022;-57
2023/06/15 00:57:56;;;;;;;5.95;2.65;;;;;;;16.46;51.42;102049.38;7392071;19;20023;-59
2023/06/15 01:00:23;;;;;;;7.60;3.15;;;;;;;16.60;50.94;102057.19;7391962;19;20010;-58
2023/06/15 01:02:56;;;;;;;5.32;2.78;;;;;;;16.64;50.57;102050.63;7390928;19;20022;-58
2023/06/15 01:05:24;;;;;;;6.47;2.58;;;;;;;16.56;50.50;102051.22;7392489;19;20018;-58
2023/06/15 01:07:54;;;;;;;5.45;2.60;;;;;;;16.75;50.16;102060.50;7390979;19;20015;-57
2023/06/15 01:10:23;;;;;;;4.57;2.45;;;;;;;16.93;49.71;102050.16;7391722;19;20478;-57
2023/06/15 01:12:54;;;;;;;6.85;2.70;;;;;;;16.98;49.51;102056.00;7388795;19;20022;-57
2023/06/15 01:15:22;;;;;;;6.95;2.47;;;;;;;17.06;48.93;102053.56;7391883;19;20010;-56
2023/06/15 01:17:53;;;;;;;5.10;2.40;;;;;;;17.11;48.90;102040.66;7391310;19;20037;-57
2023/06/15 01:20:32;;;;;;;5.88;2.70;;;;;;;17.02;48.73;102052.13;7391347;19;20018;-56
2023/06/15 01:23:02;;;;;;;6.43;2.55;;;;;;;16.95;48.89;102041.06;7388745;19;20420;-55
2023/06/15 01:25:35;;;;;;;8.40;2.90;;;;;;;16.92;48.99;102049.31;7391271;19;20019;-61
2023/06/15 01:28:05;;;;;;;7.05;2.80;;;;;;;16.80;48.98;102045.78;7390475;19;20022;-60
2023/06/15 01:30:46;;;;;;;7.03;3.20;;;;;;;16.78;49.23;102033.50;7391787;19;20488;-60
2023/06/15 01:33:15;;;;;;;7.95;3.00;;;;;;;16.76;49.33;102044.34;7389364;19;20029;-60
2023/06/15 01:35:43;;;;;;;5.53;3.28;;;;;;;16.78;49.05;102034.34;7391102;19;20039;-60
2023/06/15 01:38:10;;;;;;;8.65;3.20;;;;;;;16.78;49.11;102039.69;7389865;19;20025;-60
2023/06/15 01:40:42;;;;;;;7.78;2.80;;;;;;;16.39;50.22;102040.13;7390946;19;20045;-60
2023/06/15 01:43:11;;;;;;;6.75;2.53;;;;;;;16.25;50.53;102034.03;7389298;19;20116;-60
2023/06/15 01:45:43;;;;;;;6.28;2.60;;;;;;;16.58;49.70;102037.72;7391321;19;20570;-59
2023/06/15 01:48:12;;;;;;;7.68;2.92;;;;;;;16.66;49.46;102032.63;7387817;19;20335;-60
2023/06/15 01:50:40;;;;;;;6.25;2.70;;;;;;;16.71;49.28;102033.13;7390711;19;20034;-59
2023/06/15 01:53:08;;;;;;;7.50;2.90;;;;;;;16.72;49.08;102040.19;7388781;19;20022;-57
2023/06/15 01:55:35;;;;;;;8.15;2.97;;;;;;;16.80;48.92;102042.28;7391351;19;20019;-57
2023/06/15 01:58:02;;;;;;;6.10;2.50;;;;;;;16.79;48.53;102028.06;7390522;19;20019;-57
2023/06/15 02:00:30;;;;;;;9.35;2.80;;;;;;;16.68;49.10;102041.38;7390431;19;20499;-57
2023/06/15 02:02:57;;;;;;;6.10;2.35;;;;;;;16.55;49.23;102038.81;7388614;19;20018;-57
2023/06/15 02:05:25;;;;;;;6.03;2.70;;;;;;;16.50;49.42;102045.50;7390263;19;20105;-58
2023/06/15 02:07:52;;;;;;;6.82;2.63;;;;;;;16.42;49.44;102037.22;7388869;19;20089;-57
2023/06/15 02:10:19;;;;;;;6.72;2.75;;;;;;;16.38;49.69;102035.78;7390580;19;20014;-57
2023/06/15 02:12:46;;;;;;;6.57;2.53;;;;;;;16.37;49.52;102036.72;7388116;19;20019;-57
2023/06/15 02:15:14;;;;;;;8.95;2.90;;;;;;;16.30;49.71;102031.88;7390415;19;20014;-57
2023/06/15 02:17:42;;;;;;;8.55;3.05;;;;;;;16.30;49.48;102029.19;7390143;19;20482;-57
2023/06/15 02:20:10;;;;;;;7.80;2.85;;;;;;;16.25;49.76;102030.50;7390056;19;20022;-57
2023/06/15 02:22:38;;;;;;;5.60;2.80;;;;;;;16.21;49.53;102037.06;7388530;19;20030;-57
2023/06/15 02:25:07;;;;;;;6.45;2.50;;;;;;;16.17;49.72;102038.25;7391954;19;20046;-57
2023/06/15 02:27:35;;;;;;;6.20;2.67;;;;;;;16.25;49.59;102049.22;7395399;19;20026;-57
2023/06/15 02:30:03;;;;;;;5.63;2.65;;;;;;;16.26;49.25;102040.25;7397140;19;20011;-57
2023/06/15 02:32:34;;;;;;;9.63;2.70;;;;;;;16.28;49.22;102039.13;7395146;19;20486;-57
2023/06/15 02:35:05;;;;;;;8.35;2.78;;;;;;;16.19;49.31;102036.34;7397364;19;20027;-57
2023/06/15 02:37:32;;;;;;;6.45;2.50;;;;;;;16.14;49.34;102030.47;7396879;19;20022;-57
2023/06/15 02:39:59;;;;;;;6.57;3.17;;;;;;;16.15;49.29;102038.41;7397198;19;20037;-57
2023/06/15 02:42:27;;;;;;;5.32;2.60;;;;;;;16.07;49.39;102035.47;7394853;19;20018;-57
2023/06/15 02:44:54;;;;;;;4.93;2.50;;;;;;;16.06;49.31;102034.63;7396674;19;20022;-57
2023/06/15 02:47:22;;;;;;;5.75;2.40;;;;;;;16.04;49.21;102043.72;7395287;19;20021;-58
2023/06/15 02:49:50;;;;;;;6.82;2.85;;;;;;;16.01;49.33;102039.44;7396949;19;20031;-57
2023/06/15 02:52:17;;;;;;;6.97;2.90;;;;;;;15.99;49.50;102043.22;7394784;19;20015;-57
2023/06/15 02:54:45;;;;;;;6.13;2.63;;;;;;;15.97;49.39;102043.31;7396169;19;20018;-58
2023/06/15 02:57:12;;;;;;;8.05;2.90;;;;;;;16.00;49.38;102050.25;7396401;19;20018;-58
2023/06/15 02:59:40;;;;;;;5.60;2.72;;;;;;;15.93;49.51;102044.50;7396593;19;20041;-57
2023/06/15 03:02:08;;;;;;;6.47;3.30;;;;;;;15.88;49.48;102043.19;7395338;19;20014;-57
2023/06/15 03:04:44;;;;;;;9.02;3.00;;;;;;;15.88;49.62;102056.53;7395879;19;20015;-58
2023/06/15 03:07:16;;;;;;;5.78;2.80;;;;;;;15.83;49.77;102055.06;7395909;19;20042;-59
2023/06/15 03:09:47;;;;;;;5.45;2.70;;;;;;;15.85;49.66;102057.59;7394788;19;20014;-58
2023/06/15 03:12:15;;;;;;;8.05;3.33;;;;;;;15.83;49.67;102060.41;7392420;19;20122;-58
2023/06/15 03:14:50;;;;;;;5.63;2.85;;;;;;;15.89;49.46;102060.91;7395920;19;20490;-58
2023/06/15 03:17:18;;;;;;;7.95;2.95;;;;;;;15.82;49.53;102064.03;7396129;19;20022;-59
2023/06/15 03:19:48;;;;;;;5.15;3.00;;;;;;;15.79;49.52;102058.06;7395931;19;20031;-53
2023/06/15 03:22:16;;;;;;;8.13;3.25;;;;;;;15.77;49.43;102065.34;7394444;19;20019;-53
2023/06/15 03:24:44;;;;;;;7.20;3.17;;;;;;;15.73;49.65;102064.72;7393796;19;20086;-53
2023/06/15 03:27:12;;;;;;;7.43;3.40;;;;;;;15.64;49.92;102062.69;7394758;19;20030;-51
2023/06/15 03:29:39;;;;;;;7.25;2.70;;;;;;;15.64;49.94;102064.50;7394051;19;20015;-51
2023/06/15 03:32:08;;;;;;;5.07;3.00;;;;;;;15.72;49.60;102068.38;7394020;19;20031;-54
2023/06/15 03:34:37;;;;;;;8.45;3.15;;;;;;;15.65;49.85;102072.44;7395372;19;20035;-56
2023/06/15 03:37:05;;;;;;;6.22;2.78;;;;;;;15.66;50.05;102074.16;7394072;19;20486;-58
2023/06/15 03:39:33;;;;;;;7.53;3.10;;;;;;;15.60;50.24;102070.06;7395091;19;20050;-54
2023/06/15 03:42:00;;;;;;;7.32;3.28;;;;;;;15.57;50.36;102080.16;7393246;19;20014;-56
2023/06/15 03:44:28;;;;;;;6.43;2.97;;;;;;;15.61;50.30;102084.31;7395225;19;20028;-56
2023/06/15 03:46:55;;;;;;;8.90;3.22;;;;;;;15.66;50.21;102078.66;7395045;19;20018;-56
2023/06/15 03:49:22;;;;;;;8.63;3.30;;;;;;;15.63;50.52;102085.03;7392422;19;20019;-56
2023/06/15 03:51:50;;;;;;;8.57;3.65;;;;;;;15.65;50.52;102079.59;7393699;19;20139;-55
2023/06/15 03:54:17;;;;;;;7.13;3.10;;;;;;;15.60;50.46;102077.22;7393991;19;20015;-56
2023/06/15 03:56:44;;;;;;;5.75;3.10;;;;;;;15.63;50.33;102079.69;7393202;19;20025;-56
2023/06/15 03:59:11;;;;;;;6.63;2.95;;;;;;;15.60;50.43;102074.56;7394077;19;20231;-55
2023/06/15 04:01:39;;;;;;;8.23;3.20;;;;;;;15.61;50.49;102086.97;7393730;19;20482;-56
2023/06/15 04:04:06;;;;;;;6.95;3.30;;;;;;;15.68;50.45;102090.03;7391621;19;20029;-55
2023/06/15 04:06:35;;;;;;;9.10;2.90;;;;;;;15.70;50.38;102088.13;7393361;19;20097;-56
2023/06/15 04:09:03;;;;;;;6.07;2.88;;;;;;;15.80;50.47;102089.16;7392300;19;20014;-56
2023/06/15 04:11:30;;;;;;;7.88;3.67;;;;;;;15.88;50.27;102094.78;7394062;19;20015;-56
2023/06/15 04:13:57;;;;;;;9.43;3.08;;;;;;;15.95;50.25;102096.03;7391189;19;20050;-57
2023/06/15 04:16:24;;;;;;;8.45;3.47;;;;;;;15.95;50.24;102092.47;7394326;19;20018;-55
2023/06/15 04:18:52;;;;;;;6.63;2.90;;;;;;;15.94;50.44;102088.13;7393701;19;20050;-56
2023/06/15 04:21:20;;;;;;;7.88;3.20;;;;;;;15.99;50.55;102089.50;7392150;19;20473;-54
2023/06/15 04:23:47;;;;;;;7.07;3.15;;;;;;;16.03;50.50;102092.78;7388999;19;20487;-60
2023/06/15 04:26:14;;;;;;;8.15;3.30;;;;;;;16.08;50.27;102093.28;7393222;19;20018;-59
2023/06/15 04:28:45;;;;;;;7.78;3.35;;;;;;;16.07;50.41;102087.09;7390459;19;20126;-59
2023/06/15 04:31:17;;;;;;;7.07;3.58;;;;;;;16.01;50.50;102087.53;7393198;19;20077;-59
2023/06/15 04:33:44;;;;;;;6.75;3.17;;;;;;;16.05;50.48;102090.84;7390829;19;20026;-59
2023/06/15 04:36:12;;;;;;;7.30;3.22;;;;;;;16.03;50.46;102090.97;7393390;19;20018;-59
2023/06/15 04:38:46;;;;;;;5.47;3.08;;;;;;;16.08;50.89;102099.47;7392475;19;20014;-59
2023/06/15 04:41:16;;;;;;;7.13;3.67;;;;;;;16.11;50.85;102095.72;7393256;19;20018;-59
2023/06/15 04:43:43;;;;;;;7.53;3.17;;;;;;;16.14;50.85;102098.16;7390810;19;20479;-59
2023/06/15 04:46:11;;;;;;;8.02;3.25;;;;;;;16.22;50.83;102095.75;7392871;19;20014;-60
2023/06/15 04:48:43;;;;;;;7.30;3.30;;;;;;;16.20;51.16;102094.16;7387752;19;20565;-60
2023/06/15 04:51:12;;;;;;;7.23;3.10;;;;;;;16.23;51.08;102093.94;7392965;19;20029;-58
2023/06/15 04:53:42;;;;;;;7.03;3.50;;;;;;;16.20;51.43;102097.69;7390210;19;20022;-58
2023/06/15 04:56:10;;;;;;;7.28;3.38;;;;;;;16.15;51.68;102101.69;7391549;19;20074;-58
2023/06/15 04:58:37;;;;;;;8.60;3.67;;;;;;;16.19;51.72;102101.34;7390257;19;20018;-58
2023/06/15 05:01:06;;;;;;;9.27;3.63;;;;;;;16.15;51.79;102102.53;7392601;19;20027;-58
2023/06/15 05:03:34;;;;;;;7.30;3.65;;;;;;;16.15;52.04;102091.00;7390141;19;20029;-58
2023/06/15 05:06:01;;;;;;;7.78;3.42;;;;;;;16.23;52.24;102105.47;7392504;19;20068;-58
2023/06/15 05:08:28;;;;;;;8.77;3.63;;;;;;;16.23;52.32;102096.63;7391315;19;20023;-58
2023/06/15 05:10:56;;;;;;;8.52;3.55;;;;;;;16.26;52.24;102101.72;7391799;19;20490;-58
2023/06/15 05:13:23;;;;;;;7.07;3.38;;;;;;;16.30;52.38;102101.38;7389803;19;20018;-58
2023/06/15 05:15:51;;;;;;;11.30;3.78;;;;;;;16.32;52.50;102098.56;7391532;19;20016;-59
2023/06/15 05:18:26;;;;;;;6.30;3.40;;;;;;;16.40;52.39;102096.16;7392012;19;20023;-58
2023/06/15 05:20:53;;;;;;;8.02;3.42;;;;;;;16.45;52.57;102095.81;7389652;19;20029;-59
2023/06/15 05:23:21;;;;;;;9.43;3.42;;;;;;;16.50;52.68;102102.50;7389842;19;20017;-59
2023/06/15 05:25:48;;;;;;;6.85;3.45;;;;;;;16.43;53.13;102101.28;7391316;19;20486;-60
2023/06/15 05:28:18;;;;;;;7.82;3.53;;;;;;;16.46;52.82;102097.53;7389641;19;20027;-60
2023/06/15 05:30:45;;;;;;;7.53;3.40;;;;;;;16.46;52.88;102100.19;7391384;19;20041;-56
2023/06/15 05:33:13;;;;;;;9.93;3.55;;;;;;;16.56;52.92;102096.69;7389498;19;20018;-57
2023/06/15 05:35:40;;;;;;;6.95;3.42;;;;;;;16.65;53.13;102095.13;7391242;19;20525;-57
2023/06/15 05:38:08;;;;;;;6.88;3.97;;;;;;;16.57;53.48;102101.06;7390751;19;20022;-56
2023/06/15 05:40:35;;;;;;;7.57;3.47;;;;;;;16.54;53.79;102090.59;7390726;19;20049;-58
2023/06/15 05:43:02;;;;;;;8.25;3.55;;;;;;;16.71;53.53;102096.44;7389180;19;20014;-55
2023/06/15 05:45:30;;;;;;;7.28;3.97;;;;;;;16.87;53.42;102085.47;7391341;19;20014;-50
2023/06/15 05:47:57;;;;;;;7.45;3.60;;;;;;;16.95;53.28;102093.72;7391015;19;20039;-49
2023/06/15 05:50:25;;;;;;;6.68;3.75;;;;;;;17.06;53.47;102093.72;7389862;19;20070;-53
2023/06/15 05:52:52;;;;;;;8.65;3.75;;;;;;;17.07;53.61;102097.25;7388487;19;20483;-51
2023/06/15 05:55:19;;;;;;;7.28;3.72;;;;;;;17.22;53.17;102093.34;7390387;19;20383;-58
2023/06/15 05:57:46;;;;;;;8.40;3.78;;;;;;;17.24;53.45;102086.88;7390788;19;20018;-59
2023/06/15 06:00:14;;;;;;;7.60;3.60;;;;;;;17.28;53.63;102092.81;7395444;19;20015;-59
2023/06/15 06:02:42;;;;;;;7.57;3.65;;;;;;;17.25;53.89;102096.63;7395863;19;20018;-59
2023/06/15 06:05:10;;;;;;;8.88;3.72;;;;;;;17.29;54.39;102094.56;7397600;19;20015;-59
2023/06/15 06:07:37;;;;;;;8.82;4.15;;;;;;;17.43;53.38;102091.59;7397884;19;20018;-59
2023/06/15 06:10:05;;;;;;;8.40;3.45;;;;;;;17.48;53.46;102096.59;7394546;19;20088;-59
2023/06/15 06:12:36;;;;;;;7.40;3.58;;;;;;;17.51;53.67;102090.97;7394537;19;20495;-58
2023/06/15 06:15:04;;;;;;;6.78;3.63;;;;;;;17.60;53.47;102089.38;7394711;19;20022;-59
2023/06/15 06:17:31;;;;;;;7.00;3.25;;;;;;;17.68;53.07;102092.28;7396213;19;20033;-59
2023/06/15 06:20:18;;;;;;;6.93;3.70;;;;;;;17.69;53.05;102084.09;7396920;19;20052;-59
2023/06/15 06:22:45;;;;;;;10.88;4.28;;;;;;;17.80;53.13;102093.97;7395098;19;20017;-59
2023/06/15 06:25:13;;;;;;;8.57;3.38;;;;;;;17.87;52.67;102089.81;7397102;19;20011;-59
2023/06/15 06:27:40;;;;;;;8.48;3.28;;;;;;;17.91;52.42;102080.53;7395455;19;20019;-59
2023/06/15 06:30:07;;;;;;;8.55;3.58;;;;;;;18.00;52.51;102087.78;7394414;19;20447;-59
2023/06/15 06:32:35;;;;;;;7.45;3.60;;;;;;;18.05;52.30;102079.38;7394530;19;20182;-59
2023/06/15 06:35:03;;;;;;;10.80;3.88;;;;;;;18.13;52.12;102086.78;7397417;19;20014;-59
2023/06/15 06:37:30;;;;;;;12.35;3.80;;;;;;;18.17;51.74;102083.69;7396663;19;20046;-59
2023/06/15 06:39:57;;;;;;;8.45;3.55;;;;;;;18.23;51.77;102085.84;7398307;19;20036;-60
2023/06/15 06:42:24;;;;;;;9.80;3.58;;;;;;;18.31;51.34;102085.19;7394319;19;20043;-60
2023/06/15 06:44:52;;;;;;;15.48;3.92;;;;;;;18.35;51.53;102072.38;7396787;19;20007;-60
2023/06/15 06:47:19;;;;;;;10.25;3.90;;;;;;;18.40;51.43;102065.66;7396519;19;20038;-59
2023/06/15 06:49:46;;;;;;;9.85;3.10;;;;;;;18.51;50.59;102076.31;7394929;19;20494;-61
2023/06/15 06:52:13;;;;;;;10.13;3.67;;;;;;;18.61;50.29;102070.97;7394682;19;20486;-60
2023/06/15 06:54:43;;;;;;;13.20;3.75;;;;;;;18.70;50.40;102066.66;7394872;19;20007;-60
2023/06/15 06:57:11;;;;;;;13.40;3.42;;;;;;;18.77;50.38;102075.03;7396328;19;20021;-60
2023/06/15 06:59:38;;;;;;;10.60;3.60;;;;;;;18.82;50.13;102072.81;7395843;19;20143;-59
2023/06/15 07:02:10;;;;;;;10.55;3.53;;;;;;;18.90;49.64;102083.72;7394930;19;20018;-59
2023/06/15 07:04:37;;;;;;;10.65;2.90;;;;;;;18.94;49.66;102077.09;7394475;19;20018;-59
2023/06/15 07:07:05;;;;;;;12.65;3.60;;;;;;;19.01;49.32;102074.75;7396053;19;20027;-59
2023/06/15 07:09:32;;;;;;;7.60;2.90;;;;;;;19.09;49.28;102067.69;7394161;19;20029;-59
2023/06/15 07:12:00;;;;;;;9.02;3.40;;;;;;;19.15;48.61;102069.81;7391169;19;20038;-60
2023/06/15 07:14:27;;;;;;;11.90;3.55;;;;;;;19.20;48.76;102067.59;7395334;19;20011;-59
2023/06/15 07:16:54;;;;;;;8.55;3.03;;;;;;;19.28;48.06;102064.22;7395975;19;20042;-59
2023/06/15 07:19:22;;;;;;;9.48;3.60;;;;;;;19.39;48.22;102071.31;7395137;19;20021;-59
2023/06/15 07:21:49;;;;;;;9.63;3.03;;;;;;;19.42;47.85;102065.63;7394129;19;20557;-60
2023/06/15 07:24:16;;;;;;;9.52;3.10;;;;;;;19.48;47.16;102074.00;7394618;19;20470;-59
2023/06/15 07:26:44;;;;;;;12.20;2.85;;;;;;;19.55;46.93;102071.63;7396163;19;20115;-59
2023/06/15 07:29:11;;;;;;;10.38;3.47;;;;;;;19.61;46.97;102073.75;7393911;19;20030;-60
2023/06/15 07:31:38;;;;;;;11.00;3.25;;;;;;;19.69;46.83;102073.09;7394413;19;20664;-59
2023/06/15 07:34:05;;;;;;;9.15;2.67;;;;;;;19.70;46.63;102064.88;7392681;19;20019;-59
2023/06/15 07:36:32;;;;;;;8.18;3.10;;;;;;;19.76;46.13;102067.97;7394282;19;20043;-60
2023/06/15 07:39:00;;;;;;;12.45;3.25;;;;;;;19.79;46.47;102075.78;7395057;19;20018;-59
2023/06/15 07:41:27;;;;;;;13.10;3.15;;;;;;;19.83;45.84;102074.50;7394593;19;20022;-59
2023/06/15 07:43:54;;;;;;;7.30;2.50;;;;;;;19.90;44.98;102071.09;7392391;19;20131;-59
2023/06/15 07:46:22;;;;;;;9.98;3.10;;;;;;;19.96;44.92;102073.22;7394497;19;20038;-59
2023/06/15 07:48:49;;;;;;;7.07;2.50;;;;;;;20.02;44.48;102070.94;7393834;19;20038;-59
2023/06/15 07:51:16;;;;;;;6.13;2.72;;;;;;;20.05;44.13;102068.84;7392413;19;20487;-60
2023/06/15 07:54:03;;;;;;;5.75;2.75;;;;;;;20.10;44.26;102066.56;7391984;19;20417;-61
2023/06/15 07:56:31;;;;;;;5.80;3.00;;;;;;;20.13;44.52;102068.13;7394007;19;20074;-67
2023/06/15 07:58:58;;;;;;;7.05;2.83;;;;;;;20.23;44.56;102077.03;7394500;19;20019;-66
2023/06/15 08:01:25;;;;;;;6.75;3.15;;;;;;;20.30;43.78;102078.16;7393687;19;20021;-67
2023/06/15 08:03:52;;;;;;;5.75;2.88;;;;;;;20.36;43.30;102077.56;7389656;19;20018;-67
2023/06/15 08:06:20;;;;;;;5.43;2.63;;;;;;;20.42;41.55;102076.16;7394118;19;20018;-66
2023/06/15 08:08:47;;;;;;;7.57;2.85;;;;;;;20.45;41.70;102075.84;7391937;19;20042;-68
2023/06/15 08:11:16;;;;;;;6.35;2.75;;;;;;;20.53;41.22;102073.31;7394037;19;20010;-66
2023/06/15 08:13:44;;;;;;;7.57;3.05;;;;;;;20.61;41.39;102077.97;7391611;19;20014;-69
2023/06/15 08:16:11;;;;;;;7.15;3.42;;;;;;;20.65;41.21;102080.22;7394029;19;20493;-69
2023/06/15 08:18:38;;;;;;;4.40;2.63;;;;;;;20.66;41.33;102078.38;7392679;19;20466;-68
2023/06/15 08:21:05;;;;;;;6.88;2.63;;;;;;;20.72;39.99;102066.16;7393517;19;20070;-67
2023/06/15 08:23:33;;;;;;;9.90;2.90;;;;;;;20.76;39.86;102067.56;7387821;19;20042;-68
2023/06/15 08:26:00;;;;;;;6.30;2.67;;;;;;;20.81;38.76;102070.69;7393383;19;20015;-67
2023/06/15 08:28:27;;;;;;;8.07;2.72;;;;;;;20.80;38.95;102077.91;7392570;19;20026;-68
2023/06/15 08:30:54;;;;;;;10.77;3.05;;;;;;;20.89;38.56;102078.84;7393111;19;20011;-67
2023/06/15 08:33:22;;;;;;;9.75;2.65;;;;;;;20.92;38.16;102074.03;7390374;19;20683;-68
2023/06/15 08:35:49;;;;;;;6.07;2.50;;;;;;;21.03;38.29;102075.69;7393410;19;20019;-68
2023/06/15 08:38:16;;;;;;;9.88;2.78;;;;;;;21.12;37.45;102077.47;7393439;19;20018;-67
2023/06/15 08:40:44;;;;;;;6.57;2.58;;;;;;;21.17;37.45;102071.63;7393164;19;20026;-67
2023/06/15 08:43:15;;;;;;;7.18;2.90;;;;;;;21.17;36.92;102072.47;7391468;19;20022;-67
2023/06/15 08:45:47;;;;;;;5.13;2.75;;;;;;;21.15;36.96;102076.34;7392209;19;20478;-67
2023/06/15 08:48:16;;;;;;;9.25;2.85;;;;;;;21.21;36.44;102075.72;7392464;19;20031;-67
2023/06/15 08:50:44;;;;;;;6.88;2.75;;;;;;;21.17;36.54;102068.94;7390586;19;20483;-68
2023/06/15 08:53:14;;;;;;;6.22;2.30;;;;;;;21.22;35.63;102072.03;7390808;19;20019;-67
2023/06/15 08:55:42;;;;;;;7.78;2.40;;;;;;;21.25;36.25;102074.41;7392248;19;20014;-67
2023/06/15 08:58:10;;;;;;;5.38;2.72;;;;;;;21.26;35.60;102069.91;7390472;19;20517;-67
2023/06/15 09:00:37;;;;;;;5.30;2.60;;;;;;;21.29;35.95;102065.06;7392244;19;20512;-67
2023/06/15 09:03:08;;;;;;;9.32;2.42;;;;;;;21.35;35.42;102072.56;7390070;19;20023;-67
2023/06/15 09:05:36;;;;;;;6.40;2.92;;;;;;;21.40;35.44;102070.25;7392257;19;20022;-68
2023/06/15 09:08:04;;;;;;;9.43;2.70;;;;;;;21.40;35.33;102072.09;7392368;19;20020;-68
2023/06/15 09:10:37;;;;;;;6.45;2.60;;;;;;;21.48;35.13;102063.25;7389036;19;20033;-67
2023/06/15 09:13:05;;;;;;;4.70;2.63;;;;;;;21.48;34.97;102057.84;7390904;19;20022;-67
2023/06/15 09:15:33;;;;;;;6.72;2.50;;;;;;;21.51;34.28;102069.19;7391215;19;20015;-67
2023/06/15 09:18:02;;;;;;;7.10;2.90;;;;;;;21.56;35.01;102066.91;7391579;19;20028;-67
2023/06/15 09:20:31;;;;;;;6.10;2.65;;;;;;;21.68;34.18;102072.06;7391141;19;20501;-67
2023/06/15 09:23:01;;;;;;;5.35;2.70;;;;;;;21.75;33.75;102067.72;7390030;19;20029;-66
2023/06/15 09:25:31;;;;;;;7.20;2.67;;;;;;;21.74;34.10;102064.19;7392397;19;20021;-66
2023/06/15 09:28:00;;;;;;;6.25;2.78;;;;;;;21.82;33.90;102063.41;7389427;19;20014;-68
2023/06/15 09:30:38;;;;;;;5.63;2.30;;;;;;;21.89;34.14;102056.41;7389929;19;20081;-68
2023/06/15 09:33:14;;;;;;;8.23;2.50;;;;;;;21.91;34.43;102057.09;7388903;19;20025;-67
2023/06/15 09:36:05;;;;;;;7.65;2.47;;;;;;;21.92;33.38;102057.94;7390577;19;20019;-66
2023/06/15 09:38:45;;;;;;;5.97;2.50;;;;;;;21.94;33.06;102059.50;7391052;19;20046;-67
2023/06/15 09:41:14;;;;;;;6.40;2.72;;;;;;;21.97;32.96;102061.84;7391269;19;20013;-67
2023/06/15 09:43:41;;;;;;;5.03;2.22;;;;;;;21.95;33.26;102061.19;7388161;19;20010;-67
2023/06/15 09:46:13;;;;;;;4.55;2.30;;;;;;;21.97;33.26;102061.00;7389005;19;20384;-67
2023/06/15 09:48:43;;;;;;;6.25;2.40;;;;;;;22.01;33.29;102052.44;7389012;19;20038;-67
2023/06/15 09:51:10;;;;;;;8.07;2.67;;;;;;;22.10;33.37;102048.00;7388986;19;20111;-68
2023/06/15 09:53:39;;;;;;;7.20;2.80;;;;;;;22.10;33.47;102038.03;7388427;19;20112;-68
2023/06/15 09:56:09;;;;;;;4.70;2.60;;;;;;;22.21;33.59;102042.38;7391125;19;20025;-67
2023/06/15 09:58:57;;;;;;;6.65;2.40;;;;;;;22.28;33.96;102045.25;7390357;19;20018;-68
2023/06/15 10:01:27;;;;;;;8.73;2.80;;;;;;;22.32;33.13;102035.84;7390740;19;20025;-67
2023/06/15 10:03:57;;;;;;;4.18;2.40;;;;;;;22.28;33.25;102043.41;7387698;19;20018;-67
2023/06/15 10:06:26;;;;;;;7.35;2.90;;;;;;;22.33;32.83;102042.97;7390450;19;20026;-66
2023/06/15 10:08:59;;;;;;;5.97;2.72;;;;;;;22.35;32.46;102040.94;7389997;19;20034;-66
2023/06/15 10:11:27;;;;;;;6.50;2.60;;;;;;;22.34;32.37;102040.09;7390918;19;20019;-67
2023/06/15 10:14:03;;;;;;;8.02;2.78;;;;;;;22.46;32.65;102043.38;7388020;19;20014;-67
2023/06/15 10:16:30;;;;;;;7.13;2.63;;;;;;;22.48;32.27;102045.91;7388523;19;20018;-67
2023/06/15 10:19:04;;;;;;;8.18;2.80;;;;;;;22.55;32.50;102046.94;7389431;19;20014;-67
2023/06/15 10:21:36;;;;;;;6.60;2.80;;;;;;;22.58;32.65;102046.63;7389616;19;20554;-68
2023/06/15 10:24:12;;;;;;;8.10;2.60;;;;;;;22.70;31.74;102048.03;7387306;19;20572;-66
2023/06/15 10:26:42;;;;;;;6.47;2.67;;;;;;;22.81;31.48;102036.13;7388560;19;20018;-67
2023/06/15 10:29:18;;;;;;;5.50;2.55;;;;;;;22.91;30.77;102031.47;7388919;19;20046;-67
2023/06/15 10:32:02;;;;;;;5.70;2.72;;;;;;;22.84;30.88;102033.09;7387375;19;20021;-66
2023/06/15 10:34:45;;;;;;;5.68;2.40;;;;;;;22.78;30.66;102031.91;7389353;19;20493;-66
2023/06/15 10:37:35;;;;;;;8.82;2.55;;;;;;;22.88;30.66;102032.59;7389688;19;20022;-67
2023/06/15 10:40:20;;;;;;;5.75;2.50;;;;;;;23.15;30.40;102036.09;7389501;19;20550;-67
2023/06/15 10:42:48;;;;;;;6.10;2.60;;;;;;;23.29;30.80;102040.88;7386573;19;20014;-67
2023/06/15 10:45:21;;;;;;;7.07;3.50;;;;;;;23.27;30.78;102031.25;7389477;19;20014;-67
2023/06/15 10:47:49;;;;;;;;;;;;;;;23.17;31.29;102035.97;7395462;19;20018;-67
2023/06/15 10:50:16;;;;;;;7.55;3.20;;;;;;;23.17;31.19;102033.25;7398676;19;19926;-68
2023/06/15 10:52:44;;;;;;;12.27;5.55;;;;;;;23.30;31.02;102034.47;7397179;19;20021;-67
2023/06/15 10:55:14;;;;;;;13.40;6.47;;;;;;;23.37;30.95;102037.34;7396367;19;20023;-68
2023/06/15 10:57:41;;;;;;;10.13;4.32;;;;;;;23.39;30.63;102031.78;7396255;19;20096;-68
2023/06/15 11:00:12;;;;;;;15.60;8.88;;;;;;;23.44;31.50;102019.47;7394467;19;20569;-67
2023/06/15 11:02:59;;;;;;;8.43;4.05;;;;;;;23.64;30.75;102029.97;7394432;19;20018;-67
2023/06/15 11:05:41;;;;;;;8.40;4.22;;;;;;;23.67;30.25;102016.97;7396332;19;20022;-67
2023/06/15 11:08:17;;;;;;;6.05;2.80;;;;;;;23.75;30.50;102019.69;7395672;19;20369;-67
2023/06/15 11:10:44;;;;;;;11.52;4.78;;;;;;;23.87;30.81;102022.91;7393147;19;20030;-67
2023/06/15 11:13:23;;;;;;;13.07;4.85;;;;;;;24.00;30.49;102020.53;7393543;19;20023;-67
2023/06/15 11:16:06;;;;;;;7.15;3.03;;;;;;;24.16;30.40;102026.94;7395841;19;20478;-67
2023/06/15 11:18:34;;;;;;;8.07;2.60;;;;;;;24.27;30.39;102029.31;7395867;19;20011;-68
2023/06/15 11:21:02;;;;;;;6.82;2.80;;;;;;;24.24;30.25;102024.22;7396676;19;20021;-68
2023/06/15 11:23:33;;;;;;;5.18;2.83;;;;;;;24.10;30.13;102022.22;7391073;19;20022;-67
2023/06/15 11:26:01;;;;;;;7.90;3.22;;;;;;;24.05;30.58;102026.28;7399263;19;20098;-67
2023/06/15 11:28:33;;;;;;;8.18;3.13;;;;;;;24.09;30.20;102026.78;7395475;19;20416;-67
2023/06/15 11:31:06;;;;;;;6.60;3.30;;;;;;;24.12;30.10;102018.31;7393693;19;20528;-67
2023/06/15 11:33:40;;;;;;;7.75;3.03;;;;;;;24.13;30.12;102020.00;7392343;19;20019;-68